createdAt,value
2023-03-05T00:01:34.470Z,27.17
2023-03-05T00:04:03.480Z,39.58
2023-03-05T00:06:32.570Z,31.73
2023-03-05T00:09:01.153Z,30.77
2023-03-05T00:11:31.513Z,33.40
2023-03-05T00:14:00.895Z,45.15
2023-03-05T00:16:30.051Z,34.17
2023-03-05T00:19:00.419Z,37.33
2023-03-05T00:21:29.650Z,45.33
2023-03-05T00:24:01.001Z,31.63
2023-03-05T00:26:30.311Z,33.13
2023-03-05T00:28:59.603Z,36.28
2023-03-05T00:31:30.365Z,41.90
2023-03-05T00:34:04.113Z,34.13
2023-03-05T00:36:32.731Z,33.05
2023-03-05T00:39:01.979Z,32.55
2023-03-05T00:41:30.573Z,36.00
2023-03-05T00:43:58.961Z,26.95
2023-03-05T00:46:27.970Z,37.58
2023-03-05T00:49:00.350Z,31.67
2023-03-05T00:51:29.013Z,27.00
2023-03-05T00:53:57.829Z,25.60
2023-03-05T00:56:26.371Z,35.42
2023-03-05T00:58:56.773Z,41.55
2023-03-05T01:01:26.541Z,33.40
2023-03-05T01:03:59.460Z,29.85
2023-03-05T01:06:31.998Z,38.45
2023-03-05T01:09:00.575Z,33.15
2023-03-05T01:11:29.417Z,42.92
2023-03-05T01:13:58.059Z,35.55
2023-03-05T01:16:26.771Z,38.70
2023-03-05T01:18:55.314Z,39.13
2023-03-05T01:21:23.918Z,37.17
2023-03-05T01:23:53.846Z,28.23
2023-03-05T01:26:22.411Z,31.00
2023-03-05T01:28:50.775Z,27.35
2023-03-05T01:31:19.293Z,30.05
2023-03-05T01:33:47.986Z,26.02
2023-03-05T01:36:17.400Z,27.15
2023-03-05T01:38:46.411Z,23.45
2023-03-05T01:41:17.556Z,21.55
2023-03-05T01:43:46.362Z,25.63
2023-03-05T01:46:35.437Z,30.27
2023-03-05T01:49:12.226Z,23.33
2023-03-05T01:51:43.517Z,20.95
2023-03-05T01:54:13.576Z,23.67
2023-03-05T01:56:43.679Z,20.83
2023-03-05T01:59:12.784Z,23.67
2023-03-05T02:01:42.873Z,14.77
2023-03-05T02:04:12.776Z,23.58
2023-03-05T02:06:42.906Z,14.93
2023-03-05T02:09:13.291Z,21.20
2023-03-05T02:11:43.225Z,17.33
2023-03-05T02:14:11.894Z,21.00
2023-03-05T02:16:41.090Z,12.75
2023-03-05T02:19:11.222Z,16.17
2023-03-05T02:21:42.080Z,20.75
2023-03-05T02:24:12.812Z,17.27
2023-03-05T02:26:43.060Z,15.32
2023-03-05T02:29:12.338Z,15.73
2023-03-05T02:31:40.897Z,20.98
2023-03-05T02:34:10.485Z,17.23
2023-03-05T02:36:39.015Z,21.30
2023-03-05T02:39:10.155Z,21.15
2023-03-05T02:41:38.947Z,20.17
2023-03-05T02:44:07.465Z,16.23
2023-03-05T02:46:36.695Z,17.67
2023-03-05T02:49:06.103Z,17.77
2023-03-05T02:51:34.789Z,17.77
2023-03-05T02:54:03.441Z,24.27
2023-03-05T02:56:33.406Z,14.60
2023-03-05T02:59:03.331Z,12.80
2023-03-05T03:01:31.971Z,24.90
2023-03-05T03:04:00.787Z,18.05
2023-03-05T03:06:29.263Z,16.02
2023-03-05T03:08:57.793Z,18.85
2023-03-05T03:11:26.360Z,10.48
2023-03-05T03:13:56.404Z,18.08
2023-03-05T03:16:24.914Z,14.90
2023-03-05T03:18:53.344Z,15.68
2023-03-05T03:21:22.819Z,16.95
2023-03-05T03:23:51.312Z,21.08
2023-03-05T03:26:20.074Z,16.80
2023-03-05T03:28:48.469Z,14.35
2023-03-05T03:31:18.688Z,14.13
2023-03-05T03:33:47.302Z,19.77
2023-03-05T03:36:18.870Z,16.52
2023-03-05T03:38:47.241Z,13.98
2023-03-05T03:41:15.613Z,16.08
2023-03-05T03:43:46.352Z,15.63
2023-03-05T03:46:14.797Z,13.70
2023-03-05T03:48:44.649Z,15.20
2023-03-05T03:51:13.163Z,13.43
2023-03-05T03:53:41.547Z,11.27
2023-03-05T03:56:10.012Z,14.65
2023-03-05T03:58:40.751Z,15.30
2023-03-05T04:01:09.681Z,23.00
2023-03-05T04:03:38.103Z,15.77
2023-03-05T04:06:09.434Z,14.20
2023-03-05T04:08:37.929Z,11.98
2023-03-05T04:11:06.615Z,11.77
2023-03-05T04:13:35.051Z,18.75
2023-03-05T04:16:03.592Z,11.23
2023-03-05T04:18:32.663Z,14.48
2023-03-05T04:21:01.349Z,14.38
2023-03-05T04:23:31.362Z,21.77
2023-03-05T04:25:59.885Z,12.18
2023-03-05T04:28:28.515Z,17.13
2023-03-05T04:30:57.013Z,10.07
2023-03-05T04:33:25.605Z,14.82
2023-03-05T04:35:54.319Z,12.88
2023-03-05T04:38:22.860Z,13.88
2023-03-05T04:40:52.754Z,13.27
2023-03-05T04:43:21.279Z,9.38
2023-03-05T04:45:49.932Z,8.48
2023-03-05T04:48:18.920Z,12.95
2023-03-05T04:50:47.380Z,14.43
2023-03-05T04:53:18.485Z,13.35
2023-03-05T04:55:47.027Z,14.20
2023-03-05T04:58:16.768Z,12.70
2023-03-05T05:00:45.255Z,12.27
2023-03-05T05:03:13.729Z,13.70
2023-03-05T05:05:42.498Z,18.60
2023-03-05T05:08:11.862Z,15.73
2023-03-05T05:10:41.404Z,18.67
2023-03-05T05:13:09.845Z,13.45
2023-03-05T05:15:41.974Z,14.05
2023-03-05T05:18:10.415Z,18.15
2023-03-05T05:20:40.226Z,16.00
2023-03-05T05:23:08.779Z,11.82
2023-03-05T05:25:37.195Z,17.42
2023-03-05T05:28:06.077Z,13.25
2023-03-05T05:30:34.551Z,17.42
2023-03-05T05:33:04.401Z,15.35
2023-03-05T05:35:33.100Z,15.25
2023-03-05T05:38:01.624Z,13.75
2023-03-05T05:40:30.142Z,13.48
2023-03-05T05:42:58.557Z,17.35
2023-03-05T05:45:27.115Z,14.82
2023-03-05T05:47:55.700Z,15.73
2023-03-05T05:50:30.331Z,15.30
2023-03-05T05:52:58.786Z,14.23
2023-03-05T05:55:27.314Z,18.92
2023-03-05T05:57:55.802Z,26.05
2023-03-05T06:00:24.611Z,16.40
2023-03-05T06:02:53.188Z,11.75
2023-03-05T06:05:21.799Z,24.05
2023-03-05T06:07:51.653Z,16.40
2023-03-05T06:10:20.547Z,18.38
2023-03-05T06:12:49.316Z,13.13
2023-03-05T06:15:18.913Z,20.58
2023-03-05T06:17:47.848Z,15.13
2023-03-05T06:20:16.391Z,16.40
2023-03-05T06:22:44.805Z,13.80
2023-03-05T06:25:14.623Z,17.02
2023-03-05T06:27:43.155Z,19.73
2023-03-05T06:30:12.347Z,17.80
2023-03-05T06:32:40.887Z,15.18
2023-03-05T06:35:11.941Z,17.35
2023-03-05T06:37:40.373Z,15.95
2023-03-05T06:40:09.755Z,14.50
2023-03-05T06:42:39.562Z,16.25
2023-03-05T06:45:11.470Z,15.40
2023-03-05T06:47:39.880Z,13.90
2023-03-05T06:50:08.801Z,12.90
2023-03-05T06:52:38.788Z,17.42
2023-03-05T06:55:07.457Z,18.00
2023-03-05T06:57:35.964Z,14.00
2023-03-05T07:00:09.319Z,17.30
2023-03-05T07:05:58.762Z,7.93
2023-03-05T07:08:27.269Z,14.35
2023-03-05T07:10:55.926Z,15.35
2023-03-05T07:13:24.505Z,12.52
2023-03-05T07:15:54.463Z,13.32
2023-03-05T07:18:23.426Z,8.02
2023-03-05T07:20:51.994Z,15.40
2023-03-05T07:23:20.646Z,18.17
2023-03-05T07:25:49.164Z,15.27
2023-03-05T07:28:17.743Z,10.85
2023-03-05T07:30:46.235Z,18.73
2023-03-05T07:33:16.205Z,16.95
2023-03-05T07:35:44.592Z,21.70
2023-03-05T07:38:13.103Z,11.25
2023-03-05T07:40:41.577Z,12.18
2023-03-05T07:43:10.226Z,19.10
2023-03-05T07:45:41.290Z,13.45
2023-03-05T07:48:10.061Z,22.35
2023-03-05T07:50:40.475Z,15.23
2023-03-05T07:53:09.191Z,18.02
2023-03-05T07:55:37.796Z,15.57
2023-03-05T07:58:06.376Z,15.15
2023-03-05T08:00:34.895Z,15.23
2023-03-05T08:03:03.424Z,14.55
2023-03-05T08:05:34.050Z,12.88
2023-03-05T08:08:03.960Z,6.60
2023-03-05T08:10:32.464Z,10.15
2023-03-05T08:13:01.002Z,11.45
2023-03-05T08:15:31.867Z,13.68
2023-03-05T08:18:00.527Z,11.75
2023-03-05T08:20:29.835Z,12.93
2023-03-05T08:22:58.376Z,10.05
2023-03-05T08:25:28.170Z,15.85
2023-03-05T08:27:56.970Z,10.75
2023-03-05T08:30:27.698Z,12.20
2023-03-05T08:32:57.373Z,9.13
2023-03-05T08:35:26.151Z,10.63
2023-03-05T08:38:00.130Z,13.50
2023-03-05T08:40:33.458Z,14.32
2023-03-05T08:43:02.098Z,11.55
2023-03-05T08:45:30.587Z,10.40
2023-03-05T08:47:59.497Z,12.02
2023-03-05T08:50:31.016Z,12.32
2023-03-05T08:53:00.160Z,8.95
2023-03-05T08:55:28.747Z,12.60
2023-03-05T08:57:59.745Z,10.55
2023-03-05T09:00:28.320Z,10.73
2023-03-05T09:02:56.877Z,11.60
2023-03-05T09:05:25.683Z,12.02
2023-03-05T09:07:54.297Z,12.55
2023-03-05T09:10:22.875Z,8.23
2023-03-05T09:12:51.408Z,7.75
2023-03-05T09:15:21.464Z,5.80
2023-03-05T09:17:50.369Z,7.38
2023-03-05T09:20:19.053Z,8.00
2023-03-05T09:22:47.641Z,10.38
2023-03-05T09:25:16.289Z,13.00
2023-03-05T09:27:45.410Z,11.50
2023-03-05T09:30:14.797Z,10.38
2023-03-05T09:32:46.560Z,7.20
2023-03-05T09:35:15.412Z,7.45
2023-03-05T09:37:43.841Z,7.57
2023-03-05T09:40:16.212Z,10.70
2023-03-05T09:42:56.235Z,10.13
2023-03-05T09:45:27.169Z,11.35
2023-03-05T09:47:59.942Z,10.18
2023-03-05T09:53:03.694Z,9.48
2023-03-05T09:55:36.101Z,12.13
2023-03-05T09:58:06.708Z,7.15
2023-03-05T10:00:38.026Z,8.73
2023-03-05T10:03:15.096Z,7.07
2023-03-05T10:05:57.961Z,10.38
2023-03-05T10:08:31.541Z,5.88
2023-03-05T10:11:01.791Z,8.10
2023-03-05T10:13:32.842Z,9.77
2023-03-05T10:16:08.139Z,8.93
2023-03-05T10:18:42.262Z,8.20
2023-03-05T10:21:16.139Z,13.07
2023-03-05T10:23:53.405Z,7.97
2023-03-05T10:26:43.098Z,7.40
2023-03-05T10:29:35.179Z,10.13
2023-03-05T10:32:09.884Z,12.27
2023-03-05T10:34:50.821Z,15.00
2023-03-05T10:37:45.580Z,7.82
2023-03-05T10:40:23.086Z,8.20
2023-03-05T10:42:55.984Z,14.43
2023-03-05T10:45:30.433Z,8.33
2023-03-05T10:48:01.708Z,12.75
2023-03-05T10:50:35.464Z,9.00
2023-03-05T10:53:16.084Z,8.25
2023-03-05T10:55:45.123Z,11.15
2023-03-05T10:58:14.715Z,11.60
2023-03-05T11:00:59.293Z,13.05
2023-03-05T11:03:28.040Z,12.13
2023-03-05T11:06:03.010Z,8.48
2023-03-05T11:08:33.768Z,8.10
2023-03-05T11:11:06.730Z,17.88
2023-03-05T11:13:35.659Z,10.75
2023-03-05T11:16:04.944Z,8.88
2023-03-05T11:18:34.774Z,11.30
2023-03-05T11:21:19.660Z,9.25
2023-03-05T11:24:05.064Z,7.07
2023-03-05T11:26:33.914Z,10.63
2023-03-05T11:29:04.895Z,10.68
2023-03-05T11:31:34.711Z,12.32
2023-03-05T11:34:04.746Z,12.98
2023-03-05T11:36:35.693Z,12.60
2023-03-05T11:39:14.225Z,20.63
2023-03-05T11:41:43.873Z,21.70
2023-03-05T11:44:13.829Z,21.90
2023-03-05T11:46:43.631Z,21.05
2023-03-05T11:49:15.669Z,17.30
2023-03-05T11:51:50.633Z,13.27
2023-03-05T11:54:23.231Z,13.40
2023-03-05T11:56:53.421Z,13.10
2023-03-05T11:59:24.181Z,12.38
2023-03-05T12:01:54.282Z,12.25
2023-03-05T12:04:23.304Z,14.82
2023-03-05T12:06:55.016Z,9.50
2023-03-05T12:09:26.445Z,14.43
2023-03-05T12:11:58.341Z,20.80
2023-03-05T12:14:28.923Z,10.47
2023-03-05T12:17:02.247Z,10.27
2023-03-05T12:19:35.697Z,13.32
2023-03-05T12:22:06.951Z,12.43
2023-03-05T12:24:39.845Z,10.27
2023-03-05T12:27:14.748Z,11.93
2023-03-05T12:29:47.385Z,15.88
2023-03-05T12:32:35.300Z,12.32
2023-03-05T12:35:05.126Z,16.50
2023-03-05T12:37:52.102Z,8.82
2023-03-05T12:40:25.874Z,11.27
2023-03-05T12:42:55.136Z,11.52
2023-03-05T12:45:28.013Z,9.38
2023-03-05T12:50:39.895Z,7.88
2023-03-05T12:53:12.138Z,8.98
2023-03-05T12:55:48.826Z,12.93
2023-03-05T12:58:19.295Z,10.07
2023-03-05T13:00:50.497Z,9.13
2023-03-05T13:03:24.353Z,11.25
2023-03-05T13:05:53.952Z,13.10
2023-03-05T13:08:23.391Z,10.73
2023-03-05T13:10:54.640Z,11.43
2023-03-05T13:13:23.442Z,12.70
2023-03-05T13:15:53.301Z,13.30
2023-03-05T13:18:22.357Z,13.82
2023-03-05T13:20:56.328Z,13.93
2023-03-05T13:23:26.354Z,14.48
2023-03-05T13:26:00.117Z,19.60
2023-03-05T13:28:29.038Z,15.43
2023-03-05T13:30:59.304Z,14.52
2023-03-05T13:33:29.320Z,14.48
2023-03-05T13:35:57.911Z,20.65
2023-03-05T13:38:28.294Z,8.93
2023-03-05T13:41:09.841Z,8.50
2023-03-05T13:43:44.612Z,9.82
2023-03-05T13:46:13.364Z,12.98
2023-03-05T13:48:44.299Z,10.57
2023-03-05T13:51:20.826Z,11.65
2023-03-05T13:53:49.335Z,17.42
2023-03-05T13:56:19.904Z,8.98
2023-03-05T13:58:50.761Z,7.40
2023-03-05T14:01:25.935Z,9.30
2023-03-05T14:03:57.296Z,12.23
2023-03-05T14:06:28.326Z,9.25
2023-03-05T14:09:04.231Z,6.90
2023-03-05T14:11:32.669Z,7.72
2023-03-05T14:14:05.737Z,13.25
2023-03-05T14:16:34.482Z,18.90
2023-03-05T14:19:04.799Z,21.55
2023-03-05T14:21:48.791Z,11.90
2023-03-05T14:24:22.741Z,16.20
2023-03-05T14:26:53.004Z,10.23
2023-03-05T14:29:23.643Z,17.23
2023-03-05T14:31:53.231Z,15.45
2023-03-05T14:34:23.658Z,12.23
2023-03-05T14:36:54.361Z,17.38
2023-03-05T14:39:28.584Z,17.88
2023-03-05T14:41:57.261Z,20.77
2023-03-05T14:44:26.613Z,12.27
2023-03-05T14:46:55.101Z,16.55
2023-03-05T14:49:23.748Z,15.23
2023-03-05T14:51:56.528Z,11.38
2023-03-05T14:56:53.892Z,13.38
2023-03-05T14:59:22.449Z,10.38
2023-03-05T15:01:51.334Z,10.55
2023-03-05T15:04:20.272Z,12.35
2023-03-05T15:06:50.971Z,10.50
2023-03-05T15:09:21.188Z,12.65
2023-03-05T15:11:50.067Z,10.32
2023-03-05T15:14:18.864Z,8.30
2023-03-05T15:16:48.747Z,14.05
2023-03-05T15:19:17.269Z,9.32
2023-03-05T15:21:46.070Z,7.55
2023-03-05T15:24:14.848Z,8.85
2023-03-05T15:26:44.716Z,9.50
2023-03-05T15:29:13.256Z,9.52
2023-03-05T15:31:42.256Z,10.27
2023-03-05T15:34:11.162Z,12.10
2023-03-05T15:36:39.666Z,9.85
2023-03-05T15:39:08.417Z,16.45
2023-03-05T15:41:36.838Z,15.90
2023-03-05T15:44:07.140Z,11.75
2023-03-05T15:46:36.540Z,10.43
2023-03-05T15:49:05.683Z,8.85
2023-03-05T15:51:34.289Z,10.02
2023-03-05T15:54:02.775Z,14.07
2023-03-05T15:56:31.201Z,10.95
2023-03-05T15:58:59.732Z,24.00
2023-03-05T16:01:30.120Z,16.45
2023-03-05T16:03:58.730Z,19.13
2023-03-05T16:06:28.053Z,15.98
2023-03-05T16:09:00.167Z,16.73
2023-03-05T16:11:29.077Z,17.38
2023-03-05T16:13:58.313Z,19.10
2023-03-05T16:16:27.014Z,10.45
2023-03-05T16:18:57.537Z,15.38
2023-03-05T16:21:26.205Z,12.93
2023-03-05T16:23:54.634Z,8.18
2023-03-05T16:26:23.056Z,11.13
2023-03-05T16:28:51.481Z,9.50
2023-03-05T16:31:20.113Z,9.13
2023-03-05T16:33:49.179Z,8.82
2023-03-05T16:36:26.757Z,17.00
2023-03-05T16:38:57.230Z,17.50
2023-03-05T16:41:26.396Z,15.00
2023-03-05T16:43:56.553Z,14.38
2023-03-05T16:46:28.219Z,15.25
2023-03-05T16:48:57.305Z,10.43
2023-03-05T16:51:28.027Z,15.88
2023-03-05T16:53:56.807Z,16.55
2023-03-05T16:56:25.345Z,15.93
2023-03-05T16:58:56.223Z,19.95
2023-03-05T17:01:30.208Z,13.73
2023-03-05T17:03:59.461Z,16.25
2023-03-05T17:06:30.065Z,19.13
2023-03-05T17:08:58.998Z,25.25
2023-03-05T17:11:27.440Z,21.42
2023-03-05T17:13:55.879Z,36.95
2023-03-05T17:16:24.857Z,23.90
2023-03-05T17:18:53.492Z,22.70
2023-03-05T17:21:21.888Z,20.17
2023-03-05T17:23:51.751Z,18.20
2023-03-05T17:26:21.310Z,15.90
2023-03-05T17:28:49.771Z,14.10
2023-03-05T17:31:18.718Z,14.68
2023-03-05T17:33:47.130Z,14.07
2023-03-05T17:36:16.028Z,17.88
2023-03-05T17:38:44.716Z,14.57
2023-03-05T17:41:14.493Z,16.58
2023-03-05T17:43:43.060Z,19.00
2023-03-05T17:46:11.769Z,20.20
2023-03-05T17:48:40.173Z,9.10
2023-03-05T17:51:08.707Z,13.73
2023-03-05T17:53:38.853Z,10.13
2023-03-05T17:56:08.227Z,11.20
2023-03-05T17:58:38.264Z,12.68
2023-03-05T18:01:07.306Z,11.23
2023-03-05T18:03:35.789Z,16.63
2023-03-05T18:06:05.027Z,23.38
2023-03-05T18:08:33.654Z,36.30
2023-03-05T18:11:02.074Z,16.55
2023-03-05T18:13:30.437Z,17.33
2023-03-05T18:16:02.481Z,19.67
2023-03-05T18:18:30.967Z,18.13
2023-03-05T18:20:59.510Z,20.13
2023-03-05T18:23:28.035Z,22.52
2023-03-05T18:25:56.503Z,17.58
2023-03-05T18:28:25.914Z,22.27
2023-03-05T18:30:54.516Z,23.33
2023-03-05T18:33:25.642Z,17.90
2023-03-05T18:35:54.300Z,19.00
2023-03-05T18:38:23.204Z,24.50
2023-03-05T18:40:52.183Z,23.17
2023-03-05T18:43:21.242Z,31.80
2023-03-05T18:45:50.167Z,20.65
2023-03-05T18:48:18.737Z,16.35
2023-03-05T18:50:50.673Z,18.05
2023-03-05T18:53:19.183Z,19.47
2023-03-05T18:55:51.599Z,23.92
2023-03-05T18:58:20.559Z,14.85
2023-03-05T19:00:51.957Z,17.75
2023-03-05T19:03:22.795Z,18.20
2023-03-05T19:05:53.172Z,17.77
2023-03-05T19:08:21.831Z,25.00
2023-03-05T19:10:50.328Z,13.30
2023-03-05T19:13:28.080Z,14.05
2023-03-05T19:15:56.999Z,12.40
2023-03-05T19:18:28.297Z,12.43
2023-03-05T19:20:58.538Z,16.33
2023-03-05T19:23:27.053Z,22.08
2023-03-05T19:25:56.048Z,18.05
2023-03-05T19:28:28.346Z,14.00
2023-03-05T19:33:31.538Z,13.75
2023-03-05T19:36:01.588Z,14.60
2023-03-05T19:38:30.045Z,13.13
2023-03-05T19:40:58.527Z,16.10
2023-03-05T19:43:27.344Z,18.48
2023-03-05T19:46:01.611Z,15.88
2023-03-05T19:48:31.514Z,17.23
2023-03-05T19:51:01.323Z,16.83
2023-03-05T19:53:29.849Z,14.52
2023-03-05T19:55:58.315Z,16.80
2023-03-05T19:58:27.155Z,13.20
2023-03-05T20:00:55.754Z,17.92
2023-03-05T20:03:24.145Z,10.70
2023-03-05T20:05:55.215Z,17.90
2023-03-05T20:08:25.011Z,10.10
2023-03-05T20:10:53.438Z,20.30
2023-03-05T20:13:22.010Z,14.88
2023-03-05T20:15:50.475Z,17.25
2023-03-05T20:18:18.933Z,11.10
2023-03-05T20:20:47.377Z,6.07
2023-03-05T20:23:15.784Z,8.57
2023-03-05T20:25:45.913Z,18.83
2023-03-05T20:28:25.570Z,14.45
2023-03-05T20:30:57.958Z,15.38
2023-03-05T20:33:27.551Z,11.32
2023-03-05T20:35:56.663Z,17.98
2023-03-05T20:38:26.029Z,10.55
2023-03-05T20:41:02.322Z,14.50
2023-03-05T20:43:33.327Z,14.30
2023-03-05T20:46:01.989Z,12.25
2023-03-05T20:48:31.349Z,13.68
2023-03-05T20:51:01.468Z,15.93
2023-03-05T20:53:29.839Z,18.00
2023-03-05T20:55:59.619Z,16.30
2023-03-05T20:58:27.945Z,15.93
2023-03-05T21:00:56.965Z,12.35
2023-03-05T21:03:26.505Z,14.23
2023-03-05T21:05:56.457Z,14.25
2023-03-05T21:08:25.616Z,17.48
2023-03-05T21:10:54.527Z,14.27
2023-03-05T21:13:25.058Z,14.18
2023-03-05T21:15:53.824Z,17.02
2023-03-05T21:18:22.222Z,13.48
2023-03-05T21:20:50.614Z,14.30
2023-03-05T21:23:21.294Z,14.60
2023-03-05T21:25:49.714Z,9.82
2023-03-05T21:28:18.709Z,13.50
2023-03-05T21:30:49.586Z,17.02
2023-03-05T21:33:19.623Z,19.48
2023-03-05T21:35:48.335Z,14.43
2023-03-05T21:38:16.826Z,15.57
2023-03-05T21:40:48.662Z,26.90
2023-03-05T21:43:18.492Z,18.60
2023-03-05T21:45:48.947Z,20.17
2023-03-05T21:48:17.708Z,18.30
2023-03-05T21:50:47.633Z,21.90
2023-03-05T21:53:16.661Z,22.00
2023-03-05T21:55:55.392Z,18.02
2023-03-05T21:58:24.881Z,16.58
2023-03-05T22:00:55.263Z,31.25
2023-03-05T22:03:23.832Z,18.17
2023-03-05T22:05:52.694Z,20.33
2023-03-05T22:08:21.484Z,20.77
2023-03-05T22:10:50.131Z,20.77
2023-03-05T22:13:23.656Z,20.02
2023-03-05T22:15:53.086Z,22.17
2023-03-05T22:18:26.834Z,22.13
2023-03-05T22:20:55.871Z,18.92
2023-03-05T22:23:25.765Z,26.98
2023-03-05T22:25:57.726Z,22.58
2023-03-05T22:28:26.153Z,22.80
2023-03-05T22:30:54.604Z,25.00
2023-03-05T22:33:24.522Z,19.88
2023-03-05T22:35:52.998Z,23.60
2023-03-05T22:38:21.531Z,26.23
2023-03-05T22:40:51.241Z,33.20
2023-03-05T22:43:20.035Z,28.80
2023-03-05T22:45:48.435Z,28.58
2023-03-05T22:48:17.159Z,32.17
2023-03-05T22:50:46.871Z,28.58
2023-03-05T22:53:17.958Z,25.85
2023-03-05T22:55:48.117Z,29.88
2023-03-05T22:58:16.508Z,20.48
2023-03-05T23:00:44.945Z,18.65
2023-03-05T23:03:13.354Z,17.48
2023-03-05T23:05:41.728Z,26.50
2023-03-05T23:08:11.545Z,18.80
2023-03-05T23:10:40.103Z,19.40
2023-03-05T23:13:10.619Z,17.75
2023-03-05T23:15:39.845Z,15.52
2023-03-05T23:18:09.004Z,18.95
2023-03-05T23:20:38.489Z,17.52
2023-03-05T23:23:06.932Z,17.25
2023-03-05T23:25:37.367Z,17.50
2023-03-05T23:28:05.982Z,17.98
2023-03-05T23:30:39.354Z,18.00
2023-03-05T23:33:09.364Z,14.35
2023-03-05T23:35:38.737Z,18.30
2023-03-05T23:38:08.771Z,18.23
2023-03-05T23:40:39.540Z,15.48
2023-03-05T23:43:08.022Z,18.75
2023-03-05T23:45:36.430Z,13.77
2023-03-05T23:48:04.839Z,16.25
2023-03-05T23:50:34.670Z,14.25
2023-03-05T23:53:03.515Z,20.08
2023-03-05T23:55:33.378Z,15.48
2023-03-05T23:58:03.186Z,16.58
